Aérodrome :
LOGIN :

S'inscrire | Disclaimer

   EN    FR    IT 

 










Légende :    VFR   VFR Marginal   IFR   IFR Intensif   IFR Très Intensif
Visi : 
Plafond : 
>= 8 km
>= 3000ft
5 à 8 km
1000 à 3000 ft
1500m à 5 km
500 à 1000 ft
800 à 1500m
200 à 500 ft
< 800m
< 200 ft
Symboles :   Orages  Brouillard  Fortes neiges  Fortes précipitations  Vent > 20 kt
SIGMETs :   Divers  Orages  Givrage  Turbulence  Onde Orograph.  Cendres Volcan.







- Altitude de l'aérodrome : 2001 ft
- Code IATA : MAD


LEMD - Madrid

DERNIER METAR :
  • 240230Z VRB02KT CAVOK 03/M01 Q1028 NOSIG

METARs EXPIRÉS :
  • 240200Z 01004KT CAVOK 03/M00 Q1029 NOSIG
  • 240130Z 30003KT CAVOK 03/M01 Q1029 NOSIG
  • 240100Z VRB02KT CAVOK 03/M01 Q1029 NOSIG
  • 240030Z 34003KT CAVOK 04/M00 Q1029 NOSIG
  • 240000Z 01003KT 320V030 CAVOK 05/M00 Q1029 NOSIG

TAF TAF LEMD
Valide du 24 à 00h jusqu'au 25 à 06h UTC


232300Z 2400/2506 02005KT CAVOK TX20/2415Z TN02/2406Z
BECMG 2409/2410 VRB04KT
BECMG 2419/2420 03005KT
Pas de NOTAMs connus pour ce terrain.



MET'MAP, la Météo Aéronautique d'un coup d'oeil ! - Copyright ORBIFLY Décembre 2007 - Disclaimer

ORBIFLY MET'MAP TEAM :

Programmation & Développement : Alexandra Zaïnal
Conception & Développement : Baudouin d'Aumeries
Co-Programmation & Développement : Marc-Olivier Méhu
Soutien technique & logistique : Manuel Goepfert

Contact : metmap@orbifly.com




SOURCES & CREDITS :

   NOAA